createdAt,value
2017-11-07T00:01:57.581Z,99071.63
2017-11-07T00:04:26.646Z,99066.48
2017-11-07T00:06:54.997Z,99064.46
2017-11-07T00:09:23.290Z,99059.48
2017-11-07T00:11:51.612Z,99061.46
2017-11-07T00:14:19.899Z,99073.18
2017-11-07T00:16:48.228Z,99069.72
2017-11-07T00:19:16.483Z,99074.89
2017-11-07T00:21:44.748Z,99065.22
2017-11-07T00:24:13.812Z,99078.80
2017-11-07T00:26:42.097Z,99077.94
2017-11-07T00:29:10.376Z,99064.25
2017-11-07T00:31:38.669Z,99058.17
2017-11-07T00:34:07.714Z,99065.88
2017-11-07T00:36:35.983Z,99056.87
2017-11-07T00:39:04.251Z,99051.72
2017-11-07T00:41:32.507Z,99053.94
2017-11-07T00:44:01.562Z,99050.89
2017-11-07T00:46:29.830Z,99046.50
2017-11-07T00:48:58.120Z,99045.45
2017-11-07T00:51:26.389Z,99051.36
2017-11-07T00:53:54.651Z,99047.08
2017-11-07T00:56:22.937Z,99045.90
2017-11-07T00:58:51.205Z,99047.55
2017-11-07T01:01:19.503Z,99043.44
2017-11-07T01:03:47.777Z,99048.28
2017-11-07T01:06:16.059Z,99046.77
2017-11-07T01:08:44.346Z,99050.84
2017-11-07T01:11:12.614Z,99046.78
2017-11-07T01:13:40.888Z,99047.24
2017-11-07T01:16:09.160Z,99045.30
2017-11-07T01:18:37.427Z,99046.27
2017-11-07T01:21:05.724Z,99049.09
2017-11-07T01:23:33.979Z,99050.97
2017-11-07T01:26:02.288Z,99051.98
2017-11-07T01:28:31.384Z,99049.33
2017-11-07T01:30:59.664Z,99042.09
2017-11-07T01:33:27.976Z,99041.08
2017-11-07T01:35:57.070Z,99040.19
2017-11-07T01:38:26.105Z,99033.23
2017-11-07T01:40:54.376Z,99030.88
2017-11-07T01:43:22.651Z,99026.13
2017-11-07T01:45:50.939Z,99025.81
2017-11-07T01:48:19.206Z,99021.30
2017-11-07T01:50:47.514Z,99024.53
2017-11-07T01:53:15.840Z,99020.34
2017-11-07T01:55:44.887Z,99021.08
2017-11-07T01:58:13.237Z,99018.36
2017-11-07T02:00:41.618Z,99014.04
2017-11-07T02:03:09.943Z,99010.36
2017-11-07T02:05:38.275Z,99007.73
2017-11-07T02:08:07.326Z,99007.54
2017-11-07T02:10:35.705Z,99012.05
2017-11-07T02:13:04.058Z,99010.02
2017-11-07T02:15:32.342Z,99009.34
2017-11-07T02:18:00.949Z,98999.94
2017-11-07T02:20:29.333Z,99004.63
2017-11-07T02:22:57.647Z,99005.97
2017-11-07T02:25:25.990Z,99008.47
2017-11-07T02:27:54.381Z,99011.31
2017-11-07T02:30:23.506Z,99006.34
2017-11-07T02:32:51.789Z,99004.44
2017-11-07T02:35:20.123Z,99009.36
2017-11-07T02:37:48.452Z,99008.64
2017-11-07T02:40:16.921Z,99009.23
2017-11-07T02:42:45.328Z,99004.08
2017-11-07T02:45:13.691Z,98991.78
2017-11-07T02:47:42.129Z,98998.31
2017-11-07T02:50:10.597Z,98997.89
2017-11-07T02:52:39.036Z,98988.30
2017-11-07T02:55:07.472Z,98987.02
2017-11-07T02:57:36.647Z,98990.92
2017-11-07T03:00:05.048Z,98990.50
2017-11-07T03:02:33.607Z,98989.58
2017-11-07T03:05:01.958Z,98989.24
2017-11-07T03:07:30.291Z,98991.75
2017-11-07T03:09:58.773Z,98986.39
2017-11-07T03:12:27.066Z,98982.95
2017-11-07T03:14:56.166Z,98985.45
2017-11-07T03:17:25.360Z,98969.58
2017-11-07T03:19:54.409Z,98966.17
2017-11-07T03:22:22.838Z,98958.44
2017-11-07T03:24:51.139Z,98960.83
2017-11-07T03:27:19.481Z,98952.08
2017-11-07T03:29:47.917Z,98952.36
2017-11-07T03:32:16.200Z,98944.63
2017-11-07T03:34:44.607Z,98945.23
2017-11-07T03:37:13.274Z,98953.12
2017-11-07T03:39:41.555Z,98950.09
2017-11-07T03:42:09.900Z,98953.75
2017-11-07T03:44:38.198Z,98956.05
2017-11-07T03:47:06.504Z,98964.41
2017-11-07T03:49:34.793Z,98954.66
2017-11-07T03:52:03.081Z,98945.73
2017-11-07T03:54:31.393Z,98944.34
2017-11-07T03:56:59.730Z,98942.81
2017-11-07T03:59:28.027Z,98939.54
2017-11-07T04:01:56.315Z,98938.67
2017-11-07T04:04:25.454Z,98928.84
2017-11-07T04:06:54.146Z,98927.06
2017-11-07T04:09:22.452Z,98930.02
2017-11-07T04:11:51.069Z,98927.36
2017-11-07T04:14:19.336Z,98926.55
2017-11-07T04:16:48.431Z,98922.70
2017-11-07T04:19:17.528Z,98917.41
2017-11-07T04:21:46.268Z,98912.27
2017-11-07T04:24:15.221Z,98911.39
2017-11-07T04:26:43.502Z,98906.67
2017-11-07T04:29:11.776Z,98910.20
2017-11-07T04:31:40.858Z,98906.14
2017-11-07T04:34:10.317Z,98906.59
2017-11-07T04:36:38.685Z,98909.59
2017-11-07T04:39:06.976Z,98905.14
2017-11-07T04:41:35.247Z,98903.77
2017-11-07T04:44:03.544Z,98900.17
2017-11-07T04:46:32.087Z,98902.98
2017-11-07T04:49:00.356Z,98904.92
2017-11-07T04:51:29.389Z,98905.28
2017-11-07T04:53:57.674Z,98902.28
2017-11-07T04:56:25.929Z,98904.48
2017-11-07T04:58:54.236Z,98904.36
2017-11-07T05:01:22.518Z,98898.02
2017-11-07T05:03:50.861Z,98894.15
2017-11-07T05:06:19.187Z,98887.19
2017-11-07T05:08:47.478Z,98891.30
2017-11-07T05:11:16.148Z,98898.30
2017-11-07T05:13:44.500Z,98894.05
2017-11-07T05:16:12.826Z,98893.45
2017-11-07T05:18:41.887Z,98898.49
2017-11-07T05:21:10.147Z,98895.84
2017-11-07T05:23:38.449Z,98895.66
2017-11-07T05:26:06.721Z,98894.61
2017-11-07T05:28:35.578Z,98888.53
2017-11-07T05:31:03.859Z,98882.77
2017-11-07T05:33:33.020Z,98888.02
2017-11-07T05:36:02.074Z,98887.55
2017-11-07T05:38:30.354Z,98887.88
2017-11-07T05:40:58.626Z,98887.96
2017-11-07T05:43:27.423Z,98887.64
2017-11-07T05:45:55.714Z,98892.97
2017-11-07T05:48:24.910Z,98881.66
2017-11-07T05:50:53.181Z,98890.23
2017-11-07T05:53:21.489Z,98884.72
2017-11-07T05:55:49.821Z,98884.53
2017-11-07T05:58:18.125Z,98887.50
2017-11-07T06:00:46.407Z,98886.69
2017-11-07T06:03:14.724Z,98883.40
2017-11-07T06:05:43.020Z,98885.98
2017-11-07T06:08:11.305Z,98875.67
2017-11-07T06:10:39.604Z,98873.09
2017-11-07T06:13:08.306Z,98877.33
2017-11-07T06:15:36.583Z,98877.92
2017-11-07T06:18:04.877Z,98882.66
2017-11-07T06:20:33.174Z,98881.97
2017-11-07T06:23:02.216Z,98879.44
2017-11-07T06:25:30.536Z,98878.70
2017-11-07T06:27:59.567Z,98877.09
2017-11-07T06:30:27.887Z,98874.30
2017-11-07T06:32:56.175Z,98875.36
2017-11-07T06:35:24.557Z,98875.36
2017-11-07T06:37:53.808Z,98871.64
2017-11-07T06:40:22.113Z,98873.48
2017-11-07T06:42:50.378Z,98869.56
2017-11-07T06:45:18.715Z,98873.11
2017-11-07T06:47:47.823Z,98875.13
2017-11-07T06:50:16.566Z,98865.19
2017-11-07T06:52:46.091Z,98871.65
2017-11-07T06:55:15.192Z,98866.77
2017-11-07T06:57:43.567Z,98849.13
2017-11-07T07:00:11.942Z,98853.08
2017-11-07T07:02:40.536Z,98846.81
2017-11-07T07:05:09.687Z,98842.75
2017-11-07T07:07:38.009Z,98842.97
2017-11-07T07:10:06.350Z,98832.34
2017-11-07T07:12:34.654Z,98837.99
2017-11-07T07:15:03.013Z,98837.52
2017-11-07T07:17:31.511Z,98837.88
2017-11-07T07:19:59.849Z,98842.11
2017-11-07T07:22:28.262Z,98840.13
2017-11-07T07:24:56.661Z,98846.08
2017-11-07T07:27:25.341Z,98849.61
2017-11-07T07:29:53.729Z,98855.80
2017-11-07T07:32:22.013Z,98849.05
2017-11-07T07:34:50.472Z,98851.74
2017-11-07T07:37:18.780Z,98846.46
2017-11-07T07:39:47.820Z,98849.39
2017-11-07T07:42:16.541Z,98847.91
2017-11-07T07:44:44.798Z,98837.23
2017-11-07T07:47:13.068Z,98837.41
2017-11-07T07:49:41.366Z,98843.28
2017-11-07T07:52:09.652Z,98844.00
2017-11-07T07:54:38.419Z,98843.94
2017-11-07T07:57:06.672Z,98836.98
2017-11-07T07:59:35.371Z,98839.50
2017-11-07T08:02:03.662Z,98841.08
2017-11-07T08:04:32.451Z,98833.48
2017-11-07T08:07:00.719Z,98835.23
2017-11-07T08:09:29.127Z,98837.63
2017-11-07T08:11:57.446Z,98833.05
2017-11-07T08:14:26.915Z,98823.70
2017-11-07T08:16:55.218Z,98823.06
2017-11-07T08:19:24.277Z,98821.59
2017-11-07T08:21:52.548Z,98814.76
2017-11-07T08:24:20.859Z,98817.45
2017-11-07T08:26:49.166Z,98813.88
2017-11-07T08:29:17.459Z,98811.80
2017-11-07T08:31:45.744Z,98807.22
2017-11-07T08:34:14.011Z,98804.14
2017-11-07T08:36:42.702Z,98807.56
2017-11-07T08:39:10.964Z,98810.55
2017-11-07T08:41:39.234Z,98814.84
2017-11-07T08:44:08.288Z,98816.97
2017-11-07T08:46:36.564Z,98812.50
2017-11-07T08:49:04.826Z,98807.77
2017-11-07T08:51:33.119Z,98801.88
2017-11-07T08:54:01.429Z,98791.84
2017-11-07T08:56:30.470Z,98794.20
2017-11-07T08:58:58.763Z,98789.28
2017-11-07T09:01:27.021Z,98787.61
2017-11-07T09:03:55.309Z,98779.16
2017-11-07T09:06:23.572Z,98776.92
2017-11-07T09:08:51.832Z,98773.68
2017-11-07T09:11:20.108Z,98771.56
2017-11-07T09:13:48.381Z,98770.73
2017-11-07T09:16:17.404Z,98772.86
2017-11-07T09:18:45.677Z,98773.29
2017-11-07T09:21:13.949Z,98755.52
2017-11-07T09:23:42.207Z,98752.53
2017-11-07T09:26:11.267Z,98745.58
2017-11-07T09:28:39.532Z,98748.25
2017-11-07T09:31:07.809Z,98745.76
2017-11-07T09:33:36.060Z,98745.02
2017-11-07T09:36:04.319Z,98738.98
2017-11-07T09:38:33.576Z,98742.27
2017-11-07T09:41:01.842Z,98739.00
2017-11-07T09:43:30.116Z,98743.50
2017-11-07T09:45:58.406Z,98737.95
2017-11-07T09:48:28.182Z,98741.03
2017-11-07T09:50:56.483Z,98741.10
2017-11-07T09:53:24.742Z,98742.25
2017-11-07T09:55:52.999Z,98738.72
2017-11-07T09:58:21.285Z,98738.37
2017-11-07T10:00:49.552Z,98733.16
2017-11-07T10:03:17.810Z,98730.50
2017-11-07T10:05:46.854Z,98728.28
2017-11-07T10:08:15.117Z,98728.91
2017-11-07T10:10:43.395Z,98730.38
2017-11-07T10:13:11.682Z,98728.31
2017-11-07T10:15:39.946Z,98728.22
2017-11-07T10:18:08.240Z,98720.20
2017-11-07T10:20:36.529Z,98717.45
2017-11-07T10:23:04.801Z,98710.73
2017-11-07T10:25:33.084Z,98711.60
2017-11-07T10:28:01.358Z,98710.19
2017-11-07T10:30:29.651Z,98702.58
2017-11-07T10:32:58.218Z,98703.17
2017-11-07T10:35:26.482Z,98698.85
2017-11-07T10:37:54.818Z,98701.17
2017-11-07T10:40:23.107Z,98699.92
2017-11-07T10:42:51.384Z,98700.45
2017-11-07T10:45:19.667Z,98695.66
2017-11-07T10:47:48.701Z,98691.74
2017-11-07T10:50:16.967Z,98678.81
2017-11-07T10:52:45.673Z,98675.66
2017-11-07T10:55:13.935Z,98674.82
2017-11-07T10:57:42.213Z,98670.70
2017-11-07T11:00:10.497Z,98676.32
2017-11-07T11:02:38.975Z,98670.55
2017-11-07T11:05:07.260Z,98664.64
2017-11-07T11:07:36.267Z,98654.47
2017-11-07T11:10:04.982Z,98659.91
2017-11-07T11:12:33.281Z,98646.81
2017-11-07T11:15:02.051Z,98650.65
2017-11-07T11:17:30.298Z,98646.13
2017-11-07T11:19:58.613Z,98636.86
2017-11-07T11:22:26.878Z,98632.08
2017-11-07T11:24:55.169Z,98625.27
2017-11-07T11:27:23.422Z,98626.88
2017-11-07T11:29:51.689Z,98623.09
2017-11-07T11:32:20.355Z,98619.25
2017-11-07T11:34:48.615Z,98622.13
2017-11-07T11:37:16.887Z,98620.45
2017-11-07T11:39:45.161Z,98610.80
2017-11-07T11:42:13.428Z,98606.94
2017-11-07T11:44:41.711Z,98604.53
2017-11-07T11:47:10.740Z,98596.32
2017-11-07T11:49:39.024Z,98599.60
2017-11-07T11:52:07.267Z,98591.97
2017-11-07T11:54:35.656Z,98585.35
2017-11-07T11:57:03.908Z,98581.97
2017-11-07T11:59:32.986Z,98580.63
2017-11-07T12:02:01.345Z,98586.05
2017-11-07T12:04:29.654Z,98576.73
2017-11-07T12:06:58.271Z,98569.52
2017-11-07T12:09:26.998Z,98569.33
2017-11-07T12:11:55.251Z,98565.84
2017-11-07T12:14:23.530Z,98556.04
2017-11-07T12:16:51.818Z,98554.20
2017-11-07T12:19:20.089Z,98549.17
2017-11-07T12:21:48.368Z,98551.80
2017-11-07T12:24:16.637Z,98545.53
2017-11-07T12:26:45.341Z,98540.73
2017-11-07T12:29:13.596Z,98535.89
2017-11-07T12:31:43.113Z,98537.74
2017-11-07T12:34:11.376Z,98533.03
2017-11-07T12:36:39.644Z,98528.16
2017-11-07T12:39:07.930Z,98535.94
2017-11-07T12:41:36.250Z,98535.38
2017-11-07T12:44:04.929Z,98525.19
2017-11-07T12:46:33.601Z,98533.95
2017-11-07T12:49:01.894Z,98533.41
2017-11-07T12:51:58.674Z,98523.71
2017-11-07T12:54:26.948Z,98523.91
2017-11-07T12:56:55.216Z,98520.48
2017-11-07T12:59:23.492Z,98520.50
2017-11-07T13:01:52.130Z,98520.16
2017-11-07T13:04:20.380Z,98510.81
2017-11-07T13:06:48.655Z,98517.80
2017-11-07T13:09:16.925Z,98511.29
2017-11-07T13:11:45.206Z,98515.35
2017-11-07T13:14:14.646Z,98509.61
2017-11-07T13:16:43.272Z,98515.05
2017-11-07T13:19:12.347Z,98507.66
2017-11-07T13:21:40.637Z,98501.95
2017-11-07T13:24:08.907Z,98503.67
2017-11-07T13:26:37.179Z,98505.80
2017-11-07T13:29:05.452Z,98503.28
2017-11-07T13:31:33.709Z,98500.75
2017-11-07T13:34:01.993Z,98492.67
2017-11-07T13:36:30.267Z,98492.02
2017-11-07T13:38:58.537Z,98496.19
2017-11-07T13:41:27.436Z,98489.83
2017-11-07T13:43:55.704Z,98496.08
2017-11-07T13:46:24.001Z,98498.94
2017-11-07T13:48:52.302Z,98495.37
2017-11-07T13:51:20.966Z,98493.02
2017-11-07T13:53:49.298Z,98493.99
2017-11-07T13:56:17.553Z,98490.34
2017-11-07T13:58:45.879Z,98492.48
2017-11-07T14:01:14.967Z,98487.58
2017-11-07T14:03:45.303Z,98490.75
2017-11-07T14:06:13.576Z,98493.85
2017-11-07T14:08:42.618Z,98486.20
2017-11-07T14:11:10.887Z,98488.23
2017-11-07T14:13:39.148Z,98485.15
2017-11-07T14:16:07.415Z,98481.48
2017-11-07T14:18:35.709Z,98482.13
2017-11-07T14:21:03.967Z,98476.86
2017-11-07T14:23:32.250Z,98474.52
2017-11-07T14:26:00.509Z,98474.18
2017-11-07T14:28:29.646Z,98471.41
2017-11-07T14:30:57.918Z,98474.53
2017-11-07T14:33:26.189Z,98475.42
2017-11-07T14:35:54.466Z,98471.73
2017-11-07T14:38:22.841Z,98472.07
2017-11-07T14:40:51.142Z,98469.86
2017-11-07T14:43:19.435Z,98466.05
2017-11-07T14:45:47.697Z,98465.41
2017-11-07T14:48:16.006Z,98464.42
2017-11-07T14:50:44.268Z,98457.09
2017-11-07T14:53:12.548Z,98460.83
2017-11-07T14:55:40.821Z,98457.66
2017-11-07T14:58:09.872Z,98462.61
2017-11-07T15:00:38.151Z,98464.48
2017-11-07T15:03:07.182Z,98460.98
2017-11-07T15:05:35.473Z,98461.08
2017-11-07T15:08:04.150Z,98463.61
2017-11-07T15:10:32.430Z,98462.30
2017-11-07T15:13:00.708Z,98459.59
2017-11-07T15:15:28.988Z,98466.03
2017-11-07T15:17:57.405Z,98466.34
2017-11-07T15:20:25.713Z,98466.36
2017-11-07T15:22:53.990Z,98458.36
2017-11-07T15:25:22.345Z,98448.34
2017-11-07T15:27:50.612Z,98446.30
2017-11-07T15:30:18.906Z,98444.69
2017-11-07T15:32:47.641Z,98433.63
2017-11-07T15:35:15.942Z,98434.83
2017-11-07T15:37:44.199Z,98442.95
2017-11-07T15:40:12.465Z,98440.27
2017-11-07T15:42:40.766Z,98445.56
2017-11-07T15:45:09.041Z,98441.95
2017-11-07T15:47:37.572Z,98446.84
2017-11-07T15:50:06.587Z,98443.19
2017-11-07T15:52:34.876Z,98445.34
2017-11-07T15:55:03.161Z,98455.56
2017-11-07T15:59:33.707Z,98452.87
2017-11-07T16:02:01.976Z,98456.93
2017-11-07T16:04:30.243Z,98454.58
2017-11-07T16:06:58.512Z,98452.19
2017-11-07T16:09:26.781Z,98448.11
2017-11-07T16:11:55.063Z,98448.30
2017-11-07T16:14:24.099Z,98450.12
2017-11-07T16:16:52.393Z,98446.73
2017-11-07T16:19:21.065Z,98453.30
2017-11-07T16:21:49.323Z,98446.29
2017-11-07T16:24:17.637Z,98446.64
2017-11-07T16:26:47.422Z,98443.13
2017-11-07T16:29:15.692Z,98447.58
2017-11-07T16:31:43.985Z,98442.30
2017-11-07T16:34:12.255Z,98443.02
2017-11-07T16:36:40.537Z,98435.12
2017-11-07T16:39:08.789Z,98434.17
2017-11-07T16:41:37.085Z,98441.92
2017-11-07T16:44:05.359Z,98438.97
2017-11-07T16:46:33.631Z,98440.67
2017-11-07T16:49:01.910Z,98443.20
2017-11-07T16:51:30.186Z,98440.03
2017-11-07T16:53:58.466Z,98443.69
2017-11-07T16:56:26.743Z,98440.44
2017-11-07T16:58:55.463Z,98444.84
2017-11-07T17:01:24.459Z,98440.75
2017-11-07T17:03:53.124Z,98442.77
2017-11-07T17:06:21.834Z,98440.82
2017-11-07T17:08:50.224Z,98449.13
2017-11-07T17:11:18.500Z,98444.15
2017-11-07T17:13:46.825Z,98444.70
2017-11-07T17:16:15.091Z,98448.42
2017-11-07T17:18:44.156Z,98447.78
2017-11-07T17:21:12.453Z,98443.05
2017-11-07T17:23:40.858Z,98451.92
2017-11-07T17:26:09.190Z,98445.39
2017-11-07T17:28:37.463Z,98446.67
2017-11-07T17:31:05.728Z,98445.35
2017-11-07T17:33:34.020Z,98448.86
2017-11-07T17:36:02.324Z,98446.19
2017-11-07T17:38:31.073Z,98441.16
2017-11-07T17:40:59.341Z,98436.53
2017-11-07T17:43:27.611Z,98436.20
2017-11-07T17:45:55.903Z,98438.22
2017-11-07T17:48:24.195Z,98435.30
2017-11-07T17:50:54.032Z,98431.16
2017-11-07T17:53:23.191Z,98437.45
2017-11-07T17:55:51.486Z,98433.30
2017-11-07T17:58:19.756Z,98429.14
2017-11-07T18:00:48.892Z,98429.50
2017-11-07T18:03:17.179Z,98429.03
2017-11-07T18:05:46.228Z,98428.14
2017-11-07T18:08:15.525Z,98432.73
2017-11-07T18:10:43.808Z,98421.52
2017-11-07T18:13:12.072Z,98424.38
2017-11-07T18:15:40.343Z,98420.93
2017-11-07T18:18:08.634Z,98414.69
2017-11-07T18:20:37.855Z,98418.26
2017-11-07T18:23:06.921Z,98412.41
2017-11-07T18:25:35.206Z,98409.81
2017-11-07T18:28:03.889Z,98407.22
2017-11-07T18:30:32.289Z,98402.75
2017-11-07T18:33:00.896Z,98400.86
2017-11-07T18:35:29.434Z,98397.53
2017-11-07T18:37:57.706Z,98404.02
2017-11-07T18:40:26.064Z,98398.53
2017-11-07T18:42:54.361Z,98402.47
2017-11-07T18:45:22.636Z,98400.19
2017-11-07T18:47:53.373Z,98399.63
2017-11-07T18:50:21.669Z,98401.01
2017-11-07T18:52:50.787Z,98397.52
2017-11-07T18:55:19.121Z,98394.13
2017-11-07T18:57:49.033Z,98394.43
2017-11-07T19:00:17.304Z,98398.19
2017-11-07T19:02:47.910Z,98396.17
2017-11-07T19:05:16.211Z,98393.61
2017-11-07T19:07:45.264Z,98390.62
2017-11-07T19:10:14.184Z,98394.70
2017-11-07T19:12:43.349Z,98396.73
2017-11-07T19:15:11.701Z,98389.89
2017-11-07T19:17:40.406Z,98389.08
2017-11-07T19:20:08.687Z,98380.47
2017-11-07T19:22:36.963Z,98376.66
2017-11-07T19:25:05.317Z,98378.20
2017-11-07T19:27:33.610Z,98372.50
2017-11-07T19:30:02.610Z,98367.89
2017-11-07T19:32:30.930Z,98364.20
2017-11-07T19:34:59.234Z,98367.93
2017-11-07T19:37:28.679Z,98360.47
2017-11-07T19:39:56.936Z,98366.30
2017-11-07T20:00:30.266Z,98354.44
2017-11-07T20:21:05.219Z,98358.16
2017-11-07T20:41:38.337Z,98344.83
2017-11-07T21:48:23.066Z,98286.08
2017-11-07T22:09:02.333Z,98255.30
2017-11-07T22:29:39.750Z,98266.03
2017-11-07T22:50:15.943Z,98266.75
2017-11-07T23:10:51.220Z,98264.68
2017-11-07T23:31:25.277Z,98253.86
2017-11-07T23:51:58.829Z,98243.53
